createdAt,value
2022-10-10T00:00:40.768Z,15.63
2022-10-10T00:03:07.091Z,15.71
2022-10-10T00:05:33.408Z,15.73
2022-10-10T00:08:02.120Z,15.71
2022-10-10T00:10:26.331Z,15.75
2022-10-10T00:12:52.991Z,15.88
2022-10-10T00:15:18.978Z,15.84
2022-10-10T00:17:45.320Z,15.70
2022-10-10T00:20:11.657Z,15.69
2022-10-10T00:22:38.001Z,15.79
2022-10-10T00:25:04.318Z,15.85
2022-10-10T00:27:30.654Z,15.69
2022-10-10T00:29:56.996Z,15.68
2022-10-10T00:32:23.343Z,15.72
2022-10-10T00:34:49.659Z,15.81
2022-10-10T00:37:16.009Z,15.72
2022-10-10T00:39:42.328Z,15.62
2022-10-10T00:42:08.660Z,15.77
2022-10-10T00:44:35.000Z,15.86
2022-10-10T00:47:01.341Z,15.86
2022-10-10T00:49:27.658Z,15.84
2022-10-10T00:51:53.980Z,15.86
2022-10-10T00:54:20.323Z,15.89
2022-10-10T00:56:46.684Z,15.97
2022-10-10T00:59:12.995Z,16.02
2022-10-10T01:01:39.322Z,15.96
2022-10-10T01:04:05.677Z,15.82
2022-10-10T01:06:32.022Z,15.61
2022-10-10T01:08:58.336Z,15.53
2022-10-10T01:11:24.689Z,15.41
2022-10-10T01:13:51.019Z,15.24
2022-10-10T01:16:17.340Z,14.94
2022-10-10T01:18:43.698Z,14.84
2022-10-10T01:21:10.093Z,14.92
2022-10-10T01:23:36.405Z,14.95
2022-10-10T01:26:02.765Z,14.78
2022-10-10T01:28:29.152Z,14.72
2022-10-10T01:30:55.434Z,14.81
2022-10-10T01:33:21.776Z,14.85
2022-10-10T01:35:48.117Z,14.90
2022-10-10T01:38:14.481Z,14.99
2022-10-10T01:40:40.798Z,15.06
2022-10-10T01:43:07.116Z,14.94
2022-10-10T01:45:33.441Z,14.90
2022-10-10T01:47:59.779Z,14.87
2022-10-10T01:50:26.096Z,14.85
2022-10-10T01:52:52.742Z,14.93
2022-10-10T01:55:18.786Z,15.00
2022-10-10T01:57:45.103Z,15.00
2022-10-10T02:00:11.448Z,14.84
2022-10-10T02:02:37.784Z,14.77
2022-10-10T02:05:04.105Z,14.74
2022-10-10T02:07:30.482Z,14.75
2022-10-10T02:09:56.799Z,14.85
2022-10-10T02:12:23.119Z,14.78
2022-10-10T02:14:49.443Z,14.81
2022-10-10T02:17:15.783Z,14.77
2022-10-10T02:19:42.133Z,14.80
2022-10-10T02:22:08.449Z,14.83
2022-10-10T02:24:34.795Z,14.72
2022-10-10T02:27:01.130Z,14.66
2022-10-10T02:29:27.473Z,14.74
2022-10-10T02:31:53.809Z,14.77
2022-10-10T02:34:20.167Z,14.79
2022-10-10T02:36:46.511Z,14.73
2022-10-10T02:39:12.842Z,14.69
2022-10-10T02:41:39.223Z,14.67
2022-10-10T02:44:05.540Z,14.60
2022-10-10T02:46:31.870Z,14.68
2022-10-10T02:48:58.183Z,14.76
2022-10-10T02:51:28.528Z,14.78
2022-10-10T02:53:50.885Z,14.81
2022-10-10T02:56:17.221Z,14.91
2022-10-10T02:58:43.562Z,15.14
2022-10-10T03:01:09.903Z,15.14
2022-10-10T03:03:36.209Z,14.91
2022-10-10T03:06:02.553Z,14.85
2022-10-10T03:08:28.901Z,14.79
2022-10-10T03:10:55.234Z,14.71
2022-10-10T03:13:21.567Z,14.57
2022-10-10T03:15:47.912Z,14.64
2022-10-10T03:18:14.247Z,14.56
2022-10-10T03:20:40.587Z,14.60
2022-10-10T03:23:06.903Z,14.57
2022-10-10T03:25:33.271Z,14.58
2022-10-10T03:27:59.606Z,14.61
2022-10-10T03:30:25.926Z,14.51
2022-10-10T03:32:52.699Z,14.41
2022-10-10T03:35:18.633Z,14.47
2022-10-10T03:37:44.971Z,14.44
2022-10-10T03:40:11.314Z,14.31
2022-10-10T03:42:37.651Z,14.26
2022-10-10T03:45:03.996Z,14.16
2022-10-10T03:47:30.328Z,14.13
2022-10-10T03:49:56.697Z,14.08
2022-10-10T03:52:23.012Z,13.94
2022-10-10T03:54:49.351Z,13.89
2022-10-10T03:57:15.669Z,13.93
2022-10-10T03:59:42.003Z,13.87
2022-10-10T04:02:08.345Z,13.83
2022-10-10T04:04:34.690Z,13.80
2022-10-10T04:07:01.007Z,13.76
2022-10-10T04:09:27.333Z,13.79
2022-10-10T04:11:53.703Z,13.78
2022-10-10T04:14:20.024Z,13.76
2022-10-10T04:16:46.360Z,13.72
2022-10-10T04:19:12.740Z,13.80
2022-10-10T04:21:39.052Z,13.89
2022-10-10T04:24:05.396Z,13.86
2022-10-10T04:26:31.734Z,13.94
2022-10-10T04:28:58.057Z,13.97
2022-10-10T04:31:24.392Z,13.99
2022-10-10T04:33:50.730Z,13.97
2022-10-10T04:36:17.068Z,13.90
2022-10-10T04:38:43.414Z,13.83
2022-10-10T04:41:09.767Z,13.94
2022-10-10T04:43:36.084Z,13.96
2022-10-10T04:46:02.408Z,14.02
2022-10-10T04:48:28.770Z,14.13
2022-10-10T04:50:55.091Z,14.35
2022-10-10T04:53:21.411Z,14.64
2022-10-10T04:55:47.760Z,14.79
2022-10-10T04:58:14.107Z,14.82
2022-10-10T05:00:40.444Z,14.81
2022-10-10T05:03:06.796Z,15.04
2022-10-10T05:05:33.133Z,15.17
2022-10-10T05:07:59.452Z,15.36
2022-10-10T05:10:25.816Z,15.51
2022-10-10T05:12:52.672Z,15.49
2022-10-10T05:15:18.468Z,15.73
2022-10-10T05:17:44.797Z,15.82
2022-10-10T05:20:11.115Z,15.94
2022-10-10T05:22:37.449Z,16.02
2022-10-10T05:25:03.771Z,16.23
2022-10-10T05:29:56.207Z,16.59
2022-10-10T05:32:22.553Z,16.71
2022-10-10T05:34:49.037Z,16.76
2022-10-10T05:37:15.352Z,16.99
2022-10-10T05:39:41.670Z,17.22
2022-10-10T05:42:08.003Z,17.25
2022-10-10T05:44:34.321Z,17.36
2022-10-10T05:47:00.667Z,17.52
2022-10-10T05:49:27.030Z,17.76
2022-10-10T05:51:53.357Z,17.97
2022-10-10T05:54:19.695Z,18.25
2022-10-10T05:56:46.053Z,18.59
2022-10-10T05:59:12.358Z,18.20
2022-10-10T06:01:38.681Z,17.61
2022-10-10T06:04:05.020Z,18.02
2022-10-10T06:06:31.345Z,18.26
2022-10-10T06:08:57.668Z,18.39
2022-10-10T06:11:24.031Z,18.87
2022-10-10T06:13:50.382Z,19.28
2022-10-10T06:16:16.751Z,19.06
2022-10-10T06:18:43.093Z,19.21
2022-10-10T06:21:09.417Z,19.30
2022-10-10T06:23:35.733Z,19.22
2022-10-10T06:26:02.073Z,18.81
2022-10-10T06:28:28.455Z,18.96
2022-10-10T06:30:54.762Z,19.23
2022-10-10T06:33:21.080Z,19.41
2022-10-10T06:35:47.504Z,19.73
2022-10-10T06:38:13.838Z,19.59
2022-10-10T06:40:40.176Z,19.47
2022-10-10T06:43:06.516Z,19.38
2022-10-10T06:45:32.832Z,19.37
2022-10-10T06:47:59.171Z,18.99
2022-10-10T06:50:25.559Z,19.20
2022-10-10T06:52:52.183Z,19.49
2022-10-10T06:55:18.233Z,19.77
2022-10-10T06:57:44.603Z,19.58
2022-10-10T07:00:10.944Z,19.30
2022-10-10T07:02:37.331Z,19.18
2022-10-10T07:05:03.659Z,19.42
2022-10-10T07:07:29.996Z,19.54
2022-10-10T07:09:56.326Z,19.86
2022-10-10T07:12:22.668Z,19.91
2022-10-10T07:14:49.010Z,19.92
2022-10-10T07:17:15.329Z,20.31
2022-10-10T07:19:41.674Z,20.41
2022-10-10T07:22:08.005Z,20.49
2022-10-10T07:24:34.523Z,20.91
2022-10-10T07:27:06.232Z,21.13
2022-10-10T07:29:27.211Z,21.24
2022-10-10T07:31:53.523Z,21.00
2022-10-10T07:34:19.844Z,20.74
2022-10-10T07:36:46.172Z,20.89
2022-10-10T07:39:16.928Z,20.96
2022-10-10T07:41:38.874Z,21.12
2022-10-10T07:44:05.219Z,21.10
2022-10-10T07:46:31.539Z,21.41
2022-10-10T07:48:57.883Z,21.69
2022-10-10T07:51:24.245Z,21.90
2022-10-10T07:53:50.570Z,21.82
2022-10-10T07:56:16.892Z,21.72
2022-10-10T07:58:43.244Z,21.90
2022-10-10T08:01:09.587Z,21.79
2022-10-10T08:03:35.904Z,21.67
2022-10-10T08:06:02.255Z,21.97
2022-10-10T08:08:28.611Z,22.15
2022-10-10T08:10:54.916Z,22.30
2022-10-10T08:13:21.263Z,22.02
2022-10-10T08:15:47.595Z,21.94
2022-10-10T08:18:13.938Z,21.87
2022-10-10T08:20:40.254Z,22.20
2022-10-10T08:23:06.607Z,22.27
2022-10-10T08:25:32.945Z,22.48
2022-10-10T08:27:59.266Z,22.65
2022-10-10T08:30:25.613Z,22.87
2022-10-10T08:32:52.434Z,22.98
2022-10-10T08:35:18.281Z,22.74
2022-10-10T08:37:44.607Z,22.97
2022-10-10T08:40:10.946Z,23.26
2022-10-10T08:42:39.606Z,23.17
2022-10-10T08:45:03.641Z,23.09
2022-10-10T08:47:29.962Z,22.92
2022-10-10T08:49:57.511Z,22.94
2022-10-10T08:52:23.832Z,23.16
2022-10-10T08:54:51.314Z,23.63
2022-10-10T08:57:16.534Z,23.84
2022-10-10T08:59:42.903Z,23.70
2022-10-10T09:02:18.105Z,23.24
2022-10-10T09:04:35.536Z,23.46
2022-10-10T09:07:01.890Z,23.54
2022-10-10T09:09:28.228Z,23.31
2022-10-10T09:11:54.580Z,23.44
2022-10-10T09:14:20.911Z,23.74
2022-10-10T09:16:47.310Z,24.04
2022-10-10T09:19:16.146Z,24.03
2022-10-10T09:21:39.967Z,24.17
2022-10-10T09:24:06.408Z,24.07
2022-10-10T09:26:32.759Z,24.03
2022-10-10T09:28:59.063Z,24.04
2022-10-10T09:31:25.403Z,23.88
2022-10-10T09:33:51.740Z,23.70
2022-10-10T09:36:18.132Z,23.47
2022-10-10T09:38:44.470Z,23.69
2022-10-10T09:41:10.792Z,23.60
2022-10-10T09:43:37.134Z,23.55
2022-10-10T09:46:03.481Z,23.32
2022-10-10T09:48:29.820Z,23.68
2022-10-10T09:50:56.935Z,23.27
2022-10-10T09:53:22.810Z,23.21
2022-10-10T09:55:49.158Z,23.39
2022-10-10T09:58:16.611Z,23.33
2022-10-10T10:00:42.985Z,23.41
2022-10-10T10:03:09.272Z,23.18
2022-10-10T10:05:35.615Z,23.29
2022-10-10T10:08:01.936Z,23.41
2022-10-10T10:10:28.264Z,23.32
2022-10-10T10:12:54.649Z,23.52
2022-10-10T10:15:21.013Z,23.51
2022-10-10T10:17:47.347Z,23.54
2022-10-10T10:20:13.694Z,23.50
2022-10-10T10:22:40.049Z,23.45
2022-10-10T10:25:06.353Z,23.59
2022-10-10T10:27:32.732Z,23.77
2022-10-10T10:29:59.082Z,24.03
2022-10-10T10:32:25.422Z,23.96
2022-10-10T10:34:51.763Z,24.02
2022-10-10T10:37:18.082Z,24.33
2022-10-10T10:39:44.516Z,24.28
2022-10-10T10:42:10.751Z,24.26
2022-10-10T10:44:37.172Z,24.30
2022-10-10T10:47:03.441Z,24.22
2022-10-10T10:49:29.812Z,24.12
2022-10-10T10:51:56.099Z,24.31
2022-10-10T10:54:22.499Z,24.34
2022-10-10T10:56:48.830Z,24.23
2022-10-10T10:59:36.273Z,23.79
2022-10-10T11:01:58.326Z,23.59
2022-10-10T11:05:16.475Z,23.66
2022-10-10T11:06:34.293Z,23.77
2022-10-10T11:09:00.767Z,23.92
2022-10-10T11:11:27.104Z,23.84
2022-10-10T11:13:53.467Z,23.90
2022-10-10T11:16:43.578Z,23.78
2022-10-10T11:18:46.162Z,23.60
2022-10-10T11:21:12.498Z,23.83
2022-10-10T11:23:38.839Z,23.98
2022-10-10T11:26:05.170Z,23.54
2022-10-10T11:28:31.578Z,23.51
2022-10-10T11:30:58.067Z,23.54
2022-10-10T11:33:24.193Z,23.48
2022-10-10T11:35:50.533Z,23.26
2022-10-10T11:38:16.854Z,23.29
2022-10-10T11:40:43.229Z,23.36
2022-10-10T11:43:09.555Z,23.34
2022-10-10T11:45:36.015Z,23.49
2022-10-10T11:48:02.329Z,23.58
2022-10-10T11:50:28.671Z,23.44
2022-10-10T11:52:55.050Z,23.61
2022-10-10T11:55:21.392Z,23.79
2022-10-10T11:57:47.726Z,23.73
2022-10-10T12:00:14.067Z,23.81
2022-10-10T12:02:40.405Z,23.73
2022-10-10T12:05:06.736Z,23.96
2022-10-10T12:07:33.093Z,23.94
2022-10-10T12:09:59.411Z,23.89
2022-10-10T12:12:25.751Z,23.88
2022-10-10T12:14:52.103Z,23.96
2022-10-10T12:17:18.428Z,23.89
2022-10-10T12:19:44.748Z,23.81
2022-10-10T12:22:11.112Z,24.11
2022-10-10T12:24:42.294Z,23.94
2022-10-10T12:27:03.766Z,24.13
2022-10-10T12:29:30.090Z,24.19
2022-10-10T12:31:56.420Z,24.36
2022-10-10T12:34:22.813Z,24.15
2022-10-10T12:36:49.162Z,24.49
2022-10-10T12:39:15.505Z,24.69
2022-10-10T12:41:46.997Z,25.11
2022-10-10T12:44:08.165Z,25.26
2022-10-10T12:46:34.515Z,25.73
2022-10-10T12:49:00.851Z,25.61
2022-10-10T12:51:27.193Z,25.09
2022-10-10T12:53:53.584Z,24.96
2022-10-10T12:56:19.901Z,25.11
2022-10-10T12:58:46.245Z,25.14
2022-10-10T13:01:12.664Z,24.89
2022-10-10T13:03:38.958Z,25.00
2022-10-10T13:06:05.300Z,24.92
2022-10-10T13:08:31.708Z,24.99
2022-10-10T13:10:58.022Z,25.09
2022-10-10T13:13:24.367Z,25.16
2022-10-10T13:15:50.688Z,25.03
2022-10-10T13:18:17.034Z,25.00
2022-10-10T13:20:43.457Z,24.71
2022-10-10T13:23:09.828Z,24.40
2022-10-10T13:25:36.146Z,24.34
2022-10-10T13:28:02.469Z,24.37
2022-10-10T13:30:28.814Z,24.20
2022-10-10T13:32:55.166Z,24.28
2022-10-10T13:35:21.524Z,24.27
2022-10-10T13:37:47.867Z,23.84
2022-10-10T13:40:14.181Z,23.99
2022-10-10T13:42:40.585Z,23.85
2022-10-10T13:45:06.922Z,23.83
2022-10-10T13:47:33.253Z,23.80
2022-10-10T13:49:59.610Z,23.56
2022-10-10T13:52:25.963Z,23.56
2022-10-10T13:54:52.278Z,23.45
2022-10-10T13:57:18.609Z,23.59
2022-10-10T13:59:44.925Z,23.42
2022-10-10T14:02:11.325Z,23.58
2022-10-10T14:04:37.574Z,23.59
2022-10-10T14:07:03.991Z,23.53
2022-10-10T14:09:30.259Z,23.62
2022-10-10T14:11:56.609Z,23.47
2022-10-10T14:14:22.993Z,23.37
2022-10-10T14:16:49.334Z,23.28
2022-10-10T14:19:15.665Z,23.09
2022-10-10T14:21:41.997Z,23.19
2022-10-10T14:24:08.310Z,23.29
2022-10-10T14:26:34.636Z,23.23
2022-10-10T14:29:00.958Z,22.94
2022-10-10T14:31:27.306Z,23.07
2022-10-10T14:33:53.642Z,22.86
2022-10-10T14:36:19.986Z,22.78
2022-10-10T14:38:46.308Z,22.94
2022-10-10T14:41:12.671Z,22.89
2022-10-10T14:43:43.442Z,22.94
2022-10-10T14:46:05.325Z,22.96
2022-10-10T14:48:31.647Z,22.99
2022-10-10T14:50:58.011Z,22.87
2022-10-10T14:53:24.323Z,22.88
2022-10-10T14:55:55.994Z,22.88
2022-10-10T14:58:17.000Z,22.69
2022-10-10T15:00:43.345Z,22.59
2022-10-10T15:03:09.738Z,22.59
2022-10-10T15:05:36.046Z,22.52
2022-10-10T15:08:02.360Z,22.47
2022-10-10T15:10:36.181Z,22.40
2022-10-10T15:12:55.222Z,22.24
2022-10-10T15:15:21.587Z,22.41
2022-10-10T15:17:47.927Z,22.42
2022-10-10T15:20:14.281Z,22.39
2022-10-10T15:22:40.593Z,22.32
2022-10-10T15:25:06.918Z,22.25
2022-10-10T15:27:33.258Z,22.20
2022-10-10T15:29:59.582Z,22.07
2022-10-10T15:32:25.962Z,21.89
2022-10-10T15:34:52.309Z,22.07
2022-10-10T15:37:18.620Z,21.93
2022-10-10T15:39:44.972Z,21.82
2022-10-10T15:42:15.162Z,21.69
2022-10-10T15:44:37.639Z,21.76
2022-10-10T15:47:03.979Z,21.81
2022-10-10T15:49:30.345Z,21.75
2022-10-10T15:51:56.636Z,21.81
2022-10-10T15:54:22.977Z,21.60
2022-10-10T15:56:49.295Z,21.63
2022-10-10T15:59:15.625Z,21.50
2022-10-10T16:01:42.000Z,21.49
2022-10-10T16:04:08.339Z,21.50
2022-10-10T16:06:34.674Z,21.47
2022-10-10T16:09:23.653Z,21.27
2022-10-10T16:11:27.441Z,21.30
2022-10-10T16:13:53.756Z,21.25
2022-10-10T16:16:20.162Z,21.20
2022-10-10T16:18:46.488Z,21.16
2022-10-10T16:21:12.822Z,21.07
2022-10-10T16:23:39.174Z,20.89
2022-10-10T16:26:05.783Z,20.93
2022-10-10T16:28:31.950Z,20.94
2022-10-10T16:30:58.209Z,20.79
2022-10-10T16:33:24.940Z,20.81
2022-10-10T16:35:51.262Z,20.66
2022-10-10T16:38:17.588Z,20.71
2022-10-10T16:40:43.954Z,20.77
2022-10-10T16:43:10.265Z,20.83
2022-10-10T16:45:36.580Z,20.82
2022-10-10T16:48:03.052Z,20.85
2022-10-10T16:50:29.353Z,20.71
2022-10-10T16:52:55.704Z,20.70
2022-10-10T16:55:22.071Z,20.55
2022-10-10T16:57:48.395Z,20.67
2022-10-10T17:00:14.717Z,20.60
2022-10-10T17:02:41.112Z,20.51
2022-10-10T17:05:07.442Z,20.41
2022-10-10T17:07:33.771Z,20.27
2022-10-10T17:10:00.160Z,20.01
2022-10-10T17:12:26.505Z,19.91
2022-10-10T17:14:52.870Z,19.82
2022-10-10T17:17:19.218Z,19.84
2022-10-10T17:19:45.570Z,19.86
2022-10-10T17:22:11.914Z,19.81
2022-10-10T17:24:38.252Z,19.82
2022-10-10T17:27:04.577Z,19.69
2022-10-10T17:29:30.943Z,19.67
2022-10-10T17:31:57.247Z,19.63
2022-10-10T17:34:23.589Z,19.56
2022-10-10T17:36:49.942Z,19.42
2022-10-10T17:39:16.270Z,19.30
2022-10-10T17:41:42.744Z,19.24
2022-10-10T17:44:08.990Z,19.25
2022-10-10T17:46:36.863Z,19.19
2022-10-10T17:49:01.745Z,19.16
2022-10-10T17:51:28.078Z,19.15
2022-10-10T17:53:54.434Z,19.08
2022-10-10T17:56:20.808Z,19.03
2022-10-10T17:58:47.106Z,18.98
2022-10-10T18:01:13.550Z,18.91
2022-10-10T18:03:39.840Z,19.00
2022-10-10T18:06:06.171Z,19.00
2022-10-10T18:08:32.508Z,18.94
2022-10-10T18:10:58.902Z,18.92
2022-10-10T18:13:25.207Z,18.84
2022-10-10T18:16:06.178Z,18.84
2022-10-10T18:18:17.894Z,18.67
2022-10-10T18:20:44.238Z,18.82
2022-10-10T18:23:10.599Z,18.84
2022-10-10T18:25:36.964Z,18.75
2022-10-10T18:28:03.290Z,18.49
2022-10-10T18:30:29.633Z,18.66
2022-10-10T18:32:56.014Z,18.72
2022-10-10T18:35:22.364Z,18.75
2022-10-10T18:37:48.702Z,18.75
2022-10-10T18:40:15.103Z,18.59
2022-10-10T18:42:41.425Z,18.59
2022-10-10T18:45:07.745Z,18.52
2022-10-10T18:47:34.089Z,18.61
2022-10-10T18:50:00.432Z,18.50
2022-10-10T18:52:26.745Z,18.66
2022-10-10T18:54:53.073Z,18.68
2022-10-10T18:57:19.391Z,18.71
2022-10-10T18:59:45.840Z,18.54
2022-10-10T19:02:12.155Z,18.58
2022-10-10T19:04:38.547Z,18.58
2022-10-10T19:07:04.885Z,18.58
2022-10-10T19:09:31.209Z,18.59
2022-10-10T19:11:57.794Z,18.71
2022-10-10T19:14:24.145Z,18.67
2022-10-10T19:16:50.490Z,18.67
2022-10-10T19:19:16.818Z,18.63
2022-10-10T19:21:43.146Z,18.63
2022-10-10T19:24:09.510Z,18.63
2022-10-10T19:26:35.825Z,18.63
2022-10-10T19:29:06.580Z,18.56
2022-10-10T19:31:28.514Z,18.60
2022-10-10T19:33:54.891Z,18.70
2022-10-10T19:36:21.202Z,18.69
2022-10-10T19:38:47.604Z,18.58
2022-10-10T19:41:13.972Z,18.57
2022-10-10T19:43:40.312Z,18.45
2022-10-10T19:46:07.188Z,18.49
2022-10-10T19:48:33.008Z,18.38
2022-10-10T19:50:59.312Z,18.29
2022-10-10T19:53:25.637Z,18.30
2022-10-10T19:55:51.973Z,18.22
2022-10-10T19:58:18.393Z,18.09
2022-10-10T20:00:44.735Z,18.06
2022-10-10T20:03:11.053Z,18.00
2022-10-10T20:05:37.376Z,17.93
2022-10-10T20:08:03.712Z,17.91
2022-10-10T20:10:30.023Z,17.84
2022-10-10T20:12:56.415Z,17.85
2022-10-10T20:15:22.751Z,17.90
2022-10-10T20:17:49.070Z,17.85
2022-10-10T20:20:15.432Z,17.86
2022-10-10T20:22:41.758Z,17.88
2022-10-10T20:25:08.104Z,17.92
2022-10-10T20:27:34.485Z,17.88
2022-10-10T20:30:00.804Z,17.88
2022-10-10T20:32:27.151Z,17.90
2022-10-10T20:34:53.495Z,17.74
2022-10-10T20:37:19.818Z,17.71
2022-10-10T20:39:46.158Z,17.69
2022-10-10T20:42:12.485Z,17.64
2022-10-10T20:44:38.825Z,17.75
2022-10-10T20:47:05.150Z,17.76
2022-10-10T20:49:31.499Z,17.69
2022-10-10T20:51:57.822Z,17.70
2022-10-10T20:54:24.181Z,17.74
2022-10-10T20:56:50.533Z,17.61
2022-10-10T20:59:16.848Z,17.72
2022-10-10T21:01:43.257Z,17.69
2022-10-10T21:04:09.505Z,17.78
2022-10-10T21:06:35.828Z,17.73
2022-10-10T21:09:02.200Z,17.74
2022-10-10T21:11:28.540Z,17.69
2022-10-10T21:13:54.874Z,17.59
2022-10-10T21:16:21.195Z,17.69
2022-10-10T21:18:57.007Z,17.66
2022-10-10T21:21:13.898Z,17.72
2022-10-10T21:23:40.233Z,17.67
2022-10-10T21:26:07.141Z,17.60
2022-10-10T21:28:33.011Z,17.59
2022-10-10T21:30:59.271Z,17.51
2022-10-10T21:33:25.590Z,17.39
2022-10-10T21:35:51.910Z,17.45
2022-10-10T21:38:18.250Z,17.41
2022-10-10T21:40:44.595Z,17.40
2022-10-10T21:43:10.930Z,17.41
2022-10-10T21:45:37.249Z,17.37
2022-10-10T21:48:03.589Z,17.38
2022-10-10T21:50:29.972Z,17.42
2022-10-10T21:52:56.287Z,17.53
2022-10-10T21:55:22.674Z,17.43
2022-10-10T21:57:49.022Z,17.41
2022-10-10T22:00:15.356Z,17.39
2022-10-10T22:02:41.680Z,17.39
2022-10-10T22:05:08.007Z,17.34
2022-10-10T22:07:34.351Z,17.33
2022-10-10T22:10:00.706Z,17.17
2022-10-10T22:12:27.026Z,17.25
2022-10-10T22:14:53.345Z,17.35
2022-10-10T22:17:19.667Z,17.47
2022-10-10T22:19:46.008Z,17.43
2022-10-10T22:22:12.331Z,17.44
2022-10-10T22:24:38.655Z,17.41
2022-10-10T22:27:05.028Z,17.47
2022-10-10T22:29:31.365Z,17.49
2022-10-10T22:31:57.746Z,17.40
2022-10-10T22:34:24.081Z,17.41
2022-10-10T22:36:50.441Z,17.41
2022-10-10T22:39:16.789Z,17.46
2022-10-10T22:41:43.104Z,17.55
2022-10-10T22:44:09.466Z,17.53
2022-10-10T22:46:35.805Z,17.41
2022-10-10T22:49:02.125Z,17.39
2022-10-10T22:51:28.466Z,17.42
2022-10-10T22:53:54.808Z,17.42
2022-10-10T22:56:21.120Z,17.38
2022-10-10T22:58:47.442Z,17.42
2022-10-10T23:01:13.800Z,17.49
2022-10-10T23:03:40.126Z,17.56
2022-10-10T23:06:06.928Z,17.59
2022-10-10T23:08:32.784Z,17.59
2022-10-10T23:10:59.118Z,17.64
2022-10-10T23:13:25.472Z,17.68
2022-10-10T23:15:51.789Z,17.76
2022-10-10T23:18:18.131Z,17.76
2022-10-10T23:20:44.486Z,17.71
2022-10-10T23:23:10.809Z,17.71
2022-10-10T23:25:37.153Z,17.66
2022-10-10T23:28:03.522Z,17.71
2022-10-10T23:30:29.870Z,17.69
2022-10-10T23:32:56.202Z,17.83
2022-10-10T23:35:22.548Z,17.82
2022-10-10T23:37:48.881Z,17.91
2022-10-10T23:40:15.198Z,17.84
2022-10-10T23:42:41.519Z,17.77
2022-10-10T23:45:07.860Z,17.93
2022-10-10T23:47:34.197Z,17.90
2022-10-10T23:50:00.515Z,17.99
2022-10-10T23:52:26.876Z,18.05
2022-10-10T23:54:53.209Z,17.99
2022-10-10T23:57:19.544Z,18.02
2022-10-10T23:59:45.886Z,18.03
